sensor_id;sensor_type;location;lat;lon;timestamp;pressure;altitude;pressure_sealevel;temperature;humidity
60465;BME280;46314;52.392;9.758;2023-03-17T00:02:09;100445.69;;;7.43;50.15
60465;BME280;46314;52.392;9.758;2023-03-17T00:04:37;100439.19;;;7.68;49.62
60465;BME280;46314;52.392;9.758;2023-03-17T00:07:04;100439.78;;;7.65;49.95
60465;BME280;46314;52.392;9.758;2023-03-17T00:09:31;100441.97;;;7.63;49.61
60465;BME280;46314;52.392;9.758;2023-03-17T00:11:57;100446.81;;;7.42;50.71
60465;BME280;46314;52.392;9.758;2023-03-17T00:14:23;100434.88;;;7.52;49.88
60465;BME280;46314;52.392;9.758;2023-03-17T00:16:51;100429.34;;;7.57;50.22
60465;BME280;46314;52.392;9.758;2023-03-17T00:19:22;100425.25;;;7.49;50.24
60465;BME280;46314;52.392;9.758;2023-03-17T00:21:50;100430.84;;;7.39;50.51
60465;BME280;46314;52.392;9.758;2023-03-17T00:24:17;100433.41;;;7.25;50.44
60465;BME280;46314;52.392;9.758;2023-03-17T00:26:43;100431.06;;;7.48;50.34
60465;BME280;46314;52.392;9.758;2023-03-17T00:29:09;100438.91;;;7.30;50.65
60465;BME280;46314;52.392;9.758;2023-03-17T00:31:36;100432.88;;;7.63;49.77
60465;BME280;46314;52.392;9.758;2023-03-17T00:34:03;100436.56;;;7.48;50.27
60465;BME280;46314;52.392;9.758;2023-03-17T00:36:32;100433.59;;;7.39;50.76
60465;BME280;46314;52.392;9.758;2023-03-17T00:39:00;100436.31;;;7.44;50.29
60465;BME280;46314;52.392;9.758;2023-03-17T00:41:26;100436.69;;;7.27;51.01
60465;BME280;46314;52.392;9.758;2023-03-17T00:43:53;100439.16;;;7.34;50.73
60465;BME280;46314;52.392;9.758;2023-03-17T00:46:21;100425.56;;;7.43;50.56
60465;BME280;46314;52.392;9.758;2023-03-17T00:48:49;100427.56;;;7.37;50.66
60465;BME280;46314;52.392;9.758;2023-03-17T00:51:16;100426.03;;;7.10;51.32
60465;BME280;46314;52.392;9.758;2023-03-17T00:53:42;100424.13;;;7.11;51.48
60465;BME280;46314;52.392;9.758;2023-03-17T00:56:13;100413.22;;;7.30;51.00
60465;BME280;46314;52.392;9.758;2023-03-17T00:58:40;100419.66;;;7.15;51.34
60465;BME280;46314;52.392;9.758;2023-03-17T01:01:07;100407.91;;;7.38;51.08
60465;BME280;46314;52.392;9.758;2023-03-17T01:03:33;100406.41;;;7.17;51.12
60465;BME280;46314;52.392;9.758;2023-03-17T01:06:01;100407.00;;;7.09;51.77
60465;BME280;46314;52.392;9.758;2023-03-17T01:08:28;100401.81;;;7.02;51.73
60465;BME280;46314;52.392;9.758;2023-03-17T01:10:55;100402.44;;;7.33;51.15
60465;BME280;46314;52.392;9.758;2023-03-17T01:13:24;100403.72;;;7.01;51.72
60465;BME280;46314;52.392;9.758;2023-03-17T01:15:51;100401.47;;;7.09;51.86
60465;BME280;46314;52.392;9.758;2023-03-17T01:18:20;100397.53;;;7.25;51.62
60465;BME280;46314;52.392;9.758;2023-03-17T01:20:47;100400.16;;;7.46;50.59
60465;BME280;46314;52.392;9.758;2023-03-17T01:23:14;100415.59;;;7.07;51.56
60465;BME280;46314;52.392;9.758;2023-03-17T01:25:42;100414.28;;;7.39;51.32
60465;BME280;46314;52.392;9.758;2023-03-17T01:28:09;100410.91;;;7.03;51.98
60465;BME280;46314;52.392;9.758;2023-03-17T01:30:39;100420.88;;;7.43;50.96
60465;BME280;46314;52.392;9.758;2023-03-17T01:33:07;100413.50;;;7.68;50.69
60465;BME280;46314;52.392;9.758;2023-03-17T01:35:35;100430.38;;;7.66;50.57
60465;BME280;46314;52.392;9.758;2023-03-17T01:38:03;100425.81;;;7.46;50.87
60465;BME280;46314;52.392;9.758;2023-03-17T01:40:31;100412.31;;;7.45;51.21
60465;BME280;46314;52.392;9.758;2023-03-17T01:43:02;100413.59;;;7.57;50.90
60465;BME280;46314;52.392;9.758;2023-03-17T01:48:51;100398.66;;;7.19;51.78
60465;BME280;46314;52.392;9.758;2023-03-17T01:51:22;100380.97;;;7.30;51.57
60465;BME280;46314;52.392;9.758;2023-03-17T01:53:51;100380.81;;;7.46;51.13
60465;BME280;46314;52.392;9.758;2023-03-17T01:56:18;100381.94;;;7.00;52.50
60465;BME280;46314;52.392;9.758;2023-03-17T01:58:45;100376.16;;;7.46;51.39
60465;BME280;46314;52.392;9.758;2023-03-17T02:01:14;100372.19;;;7.23;51.62
60465;BME280;46314;52.392;9.758;2023-03-17T02:03:41;100362.91;;;7.43;51.03
60465;BME280;46314;52.392;9.758;2023-03-17T02:06:10;100351.44;;;7.31;51.99
60465;BME280;46314;52.392;9.758;2023-03-17T02:08:36;100368.06;;;7.15;51.81
60465;BME280;46314;52.392;9.758;2023-03-17T02:11:03;100376.28;;;7.26;51.30
60465;BME280;46314;52.392;9.758;2023-03-17T02:13:30;100378.16;;;7.35;52.04
60465;BME280;46314;52.392;9.758;2023-03-17T02:15:56;100380.38;;;7.33;51.62
60465;BME280;46314;52.392;9.758;2023-03-17T02:18:23;100383.81;;;7.15;52.02
60465;BME280;46314;52.392;9.758;2023-03-17T02:23:50;100379.44;;;7.48;50.87
60465;BME280;46314;52.392;9.758;2023-03-17T02:26:17;100379.41;;;7.83;50.03
60465;BME280;46314;52.392;9.758;2023-03-17T02:28:44;100389.06;;;7.51;51.03
60465;BME280;46314;52.392;9.758;2023-03-17T02:31:11;100397.47;;;7.35;51.43
60465;BME280;46314;52.392;9.758;2023-03-17T02:33:38;100386.34;;;7.46;51.30
60465;BME280;46314;52.392;9.758;2023-03-17T02:36:04;100391.97;;;7.35;51.52
60465;BME280;46314;52.392;9.758;2023-03-17T02:38:31;100388.84;;;7.42;51.21
60465;BME280;46314;52.392;9.758;2023-03-17T02:40:59;100397.84;;;7.18;52.00
60465;BME280;46314;52.392;9.758;2023-03-17T02:43:25;100400.53;;;7.34;52.05
60465;BME280;46314;52.392;9.758;2023-03-17T02:45:51;100392.50;;;7.37;51.89
60465;BME280;46314;52.392;9.758;2023-03-17T02:48:18;100383.31;;;7.47;51.64
60465;BME280;46314;52.392;9.758;2023-03-17T02:50:44;100383.13;;;7.33;51.76
60465;BME280;46314;52.392;9.758;2023-03-17T02:53:11;100377.59;;;7.33;51.76
60465;BME280;46314;52.392;9.758;2023-03-17T02:55:37;100373.56;;;7.20;52.08
60465;BME280;46314;52.392;9.758;2023-03-17T02:58:05;100374.72;;;7.14;52.59
60465;BME280;46314;52.392;9.758;2023-03-17T03:00:31;100380.25;;;7.14;52.23
60465;BME280;46314;52.392;9.758;2023-03-17T03:02:58;100382.09;;;7.24;52.21
60465;BME280;46314;52.392;9.758;2023-03-17T03:05:25;100369.97;;;7.25;52.21
60465;BME280;46314;52.392;9.758;2023-03-17T03:07:51;100362.84;;;7.53;51.55
60465;BME280;46314;52.392;9.758;2023-03-17T03:10:18;100367.97;;;7.31;51.89
60465;BME280;46314;52.392;9.758;2023-03-17T03:12:44;100364.16;;;7.27;51.73
60465;BME280;46314;52.392;9.758;2023-03-17T03:15:12;100367.41;;;7.34;52.00
60465;BME280;46314;52.392;9.758;2023-03-17T03:17:39;100371.41;;;7.12;52.47
60465;BME280;46314;52.392;9.758;2023-03-17T03:20:05;100374.16;;;7.12;52.86
60465;BME280;46314;52.392;9.758;2023-03-17T03:22:32;100375.47;;;7.59;52.29
60465;BME280;46314;52.392;9.758;2023-03-17T03:24:58;100372.44;;;7.61;51.28
60465;BME280;46314;52.392;9.758;2023-03-17T03:27:25;100378.72;;;7.67;51.28
60465;BME280;46314;52.392;9.758;2023-03-17T03:29:51;100387.44;;;7.50;51.35
60465;BME280;46314;52.392;9.758;2023-03-17T03:32:19;100379.19;;;7.45;51.65
60465;BME280;46314;52.392;9.758;2023-03-17T03:34:45;100376.06;;;7.56;51.56
60465;BME280;46314;52.392;9.758;2023-03-17T03:37:12;100377.03;;;7.36;51.66
60465;BME280;46314;52.392;9.758;2023-03-17T03:39:38;100370.41;;;7.37;52.12
60465;BME280;46314;52.392;9.758;2023-03-17T03:42:05;100369.53;;;7.42;51.59
60465;BME280;46314;52.392;9.758;2023-03-17T03:44:31;100363.63;;;7.25;52.53
60465;BME280;46314;52.392;9.758;2023-03-17T03:46:58;100367.28;;;7.10;52.78
60465;BME280;46314;52.392;9.758;2023-03-17T03:49:25;100370.91;;;7.05;53.30
60465;BME280;46314;52.392;9.758;2023-03-17T03:51:52;100361.28;;;7.03;52.96
60465;BME280;46314;52.392;9.758;2023-03-17T03:54:18;100362.72;;;6.90;53.30
60465;BME280;46314;52.392;9.758;2023-03-17T03:56:45;100349.97;;;7.04;52.81
60465;BME280;46314;52.392;9.758;2023-03-17T03:59:11;100347.44;;;7.08;52.96
60465;BME280;46314;52.392;9.758;2023-03-17T04:01:38;100329.66;;;6.90;53.45
60465;BME280;46314;52.392;9.758;2023-03-17T04:04:04;100325.03;;;7.19;52.68
60465;BME280;46314;52.392;9.758;2023-03-17T04:06:32;100319.75;;;7.28;52.12
60465;BME280;46314;52.392;9.758;2023-03-17T04:08:58;100310.34;;;7.29;52.53
60465;BME280;46314;52.392;9.758;2023-03-17T04:11:24;100303.91;;;7.05;52.91
60465;BME280;46314;52.392;9.758;2023-03-17T04:13:51;100309.94;;;7.07;53.54
60465;BME280;46314;52.392;9.758;2023-03-17T04:16:17;100318.41;;;6.81;53.41
60465;BME280;46314;52.392;9.758;2023-03-17T04:18:44;100317.31;;;6.77;53.84
60465;BME280;46314;52.392;9.758;2023-03-17T04:21:10;100318.81;;;7.04;53.55
60465;BME280;46314;52.392;9.758;2023-03-17T04:23:38;100317.63;;;7.15;52.88
60465;BME280;46314;52.392;9.758;2023-03-17T04:26:04;100303.28;;;7.13;52.57
60465;BME280;46314;52.392;9.758;2023-03-17T04:28:30;100307.88;;;6.88;53.33
60465;BME280;46314;52.392;9.758;2023-03-17T04:30:57;100313.38;;;6.93;53.47
60465;BME280;46314;52.392;9.758;2023-03-17T04:33:23;100309.03;;;7.22;52.26
60465;BME280;46314;52.392;9.758;2023-03-17T04:35:50;100301.56;;;7.22;52.57
60465;BME280;46314;52.392;9.758;2023-03-17T04:38:16;100305.78;;;7.14;52.30
60465;BME280;46314;52.392;9.758;2023-03-17T04:40:44;100307.44;;;7.10;52.60
60465;BME280;46314;52.392;9.758;2023-03-17T04:43:11;100303.50;;;6.82;53.54
60465;BME280;46314;52.392;9.758;2023-03-17T04:45:37;100295.41;;;6.96;52.93
60465;BME280;46314;52.392;9.758;2023-03-17T04:48:05;100296.34;;;6.81;53.55
60465;BME280;46314;52.392;9.758;2023-03-17T04:50:31;100302.44;;;6.73;53.74
60465;BME280;46314;52.392;9.758;2023-03-17T04:52:58;100298.97;;;6.96;53.75
60465;BME280;46314;52.392;9.758;2023-03-17T04:55:25;100297.22;;;7.16;52.55
60465;BME280;46314;52.392;9.758;2023-03-17T04:57:52;100298.44;;;6.94;52.72
60465;BME280;46314;52.392;9.758;2023-03-17T05:00:19;100304.22;;;6.98;53.09
60465;BME280;46314;52.392;9.758;2023-03-17T05:02:46;100306.53;;;6.80;52.96
60465;BME280;46314;52.392;9.758;2023-03-17T05:05:12;100295.28;;;6.72;53.59
60465;BME280;46314;52.392;9.758;2023-03-17T05:07:39;100297.84;;;7.03;52.72
60465;BME280;46314;52.392;9.758;2023-03-17T05:10:06;100296.47;;;7.00;52.67
60465;BME280;46314;52.392;9.758;2023-03-17T05:12:33;100294.09;;;6.88;52.77
60465;BME280;46314;52.392;9.758;2023-03-17T05:15:00;100297.81;;;7.08;52.08
60465;BME280;46314;52.392;9.758;2023-03-17T05:17:27;100300.91;;;6.96;52.45
60465;BME280;46314;52.392;9.758;2023-03-17T05:19:53;100291.66;;;6.81;52.82
60465;BME280;46314;52.392;9.758;2023-03-17T05:22:19;100295.16;;;6.92;52.48
60465;BME280;46314;52.392;9.758;2023-03-17T05:24:46;100297.00;;;7.07;52.37
60465;BME280;46314;52.392;9.758;2023-03-17T05:27:12;100297.19;;;6.76;53.15
60465;BME280;46314;52.392;9.758;2023-03-17T05:29:39;100297.94;;;6.87;52.78
60465;BME280;46314;52.392;9.758;2023-03-17T05:32:06;100299.53;;;6.98;52.54
60465;BME280;46314;52.392;9.758;2023-03-17T05:34:33;100295.25;;;6.77;52.46
60465;BME280;46314;52.392;9.758;2023-03-17T05:36:59;100285.50;;;6.95;52.81
60465;BME280;46314;52.392;9.758;2023-03-17T05:39:26;100276.81;;;7.12;51.98
60465;BME280;46314;52.392;9.758;2023-03-17T05:41:52;100281.63;;;7.59;50.99
60465;BME280;46314;52.392;9.758;2023-03-17T05:44:18;100290.41;;;7.37;51.16
60465;BME280;46314;52.392;9.758;2023-03-17T05:46:45;100280.28;;;6.93;52.43
60465;BME280;46314;52.392;9.758;2023-03-17T05:49:12;100282.47;;;7.31;51.45
60465;BME280;46314;52.392;9.758;2023-03-17T05:51:39;100282.19;;;7.32;51.71
60465;BME280;46314;52.392;9.758;2023-03-17T05:54:05;100278.88;;;7.30;51.42
60465;BME280;46314;52.392;9.758;2023-03-17T05:56:32;100266.31;;;7.14;52.34
60465;BME280;46314;52.392;9.758;2023-03-17T05:58:58;100271.16;;;6.93;52.37
60465;BME280;46314;52.392;9.758;2023-03-17T06:01:25;100284.28;;;7.11;52.25
60465;BME280;46314;52.392;9.758;2023-03-17T06:03:51;100273.53;;;7.10;51.83
60465;BME280;46314;52.392;9.758;2023-03-17T06:06:19;100269.91;;;7.14;52.18
60465;BME280;46314;52.392;9.758;2023-03-17T06:08:46;100275.63;;;7.23;51.61
60465;BME280;46314;52.392;9.758;2023-03-17T06:11:12;100271.34;;;7.07;52.14
60465;BME280;46314;52.392;9.758;2023-03-17T06:13:38;100285.72;;;7.38;51.72
60465;BME280;46314;52.392;9.758;2023-03-17T06:16:05;100285.00;;;7.22;52.30
60465;BME280;46314;52.392;9.758;2023-03-17T06:18:32;100277.44;;;7.04;52.38
60465;BME280;46314;52.392;9.758;2023-03-17T06:20:58;100291.97;;;7.14;52.10
60465;BME280;46314;52.392;9.758;2023-03-17T06:23:26;100292.00;;;7.09;51.64
60465;BME280;46314;52.392;9.758;2023-03-17T06:25:52;100294.25;;;7.07;52.44
60465;BME280;46314;52.392;9.758;2023-03-17T06:28:19;100287.78;;;7.22;51.90
60465;BME280;46314;52.392;9.758;2023-03-17T06:30:45;100285.34;;;7.15;51.51
60465;BME280;46314;52.392;9.758;2023-03-17T06:33:12;100281.59;;;7.35;51.66
60465;BME280;46314;52.392;9.758;2023-03-17T06:35:38;100278.53;;;7.66;51.23
60465;BME280;46314;52.392;9.758;2023-03-17T06:38:05;100275.06;;;7.85;50.80
60465;BME280;46314;52.392;9.758;2023-03-17T06:40:33;100274.75;;;7.86;50.15
60465;BME280;46314;52.392;9.758;2023-03-17T06:43:00;100275.53;;;7.33;52.00
60465;BME280;46314;52.392;9.758;2023-03-17T06:45:26;100270.97;;;7.53;51.70
60465;BME280;46314;52.392;9.758;2023-03-17T06:47:53;100281.19;;;7.47;51.12
60465;BME280;46314;52.392;9.758;2023-03-17T06:50:20;100288.78;;;7.66;51.02
60465;BME280;46314;52.392;9.758;2023-03-17T06:52:46;100282.84;;;7.48;51.05
60465;BME280;46314;52.392;9.758;2023-03-17T06:55:13;100296.38;;;7.50;51.01
60465;BME280;46314;52.392;9.758;2023-03-17T06:57:40;100307.56;;;7.88;50.13
60465;BME280;46314;52.392;9.758;2023-03-17T07:00:08;100298.19;;;7.89;50.24
60465;BME280;46314;52.392;9.758;2023-03-17T07:02:35;100301.19;;;7.92;50.53
60465;BME280;46314;52.392;9.758;2023-03-17T07:05:01;100288.09;;;8.03;49.63
60465;BME280;46314;52.392;9.758;2023-03-17T07:07:28;100287.31;;;7.97;49.43
60465;BME280;46314;52.392;9.758;2023-03-17T07:09:54;100290.91;;;7.98;49.17
60465;BME280;46314;52.392;9.758;2023-03-17T07:12:21;100285.56;;;8.07;49.56
60465;BME280;46314;52.392;9.758;2023-03-17T07:14:48;100278.72;;;8.47;48.40
60465;BME280;46314;52.392;9.758;2023-03-17T07:17:15;100274.50;;;8.31;48.25
60465;BME280;46314;52.392;9.758;2023-03-17T07:19:41;100280.19;;;8.64;48.25
60465;BME280;46314;52.392;9.758;2023-03-17T07:22:08;100279.56;;;8.48;48.59
60465;BME280;46314;52.392;9.758;2023-03-17T07:24:36;100279.19;;;8.55;48.13
60465;BME280;46314;52.392;9.758;2023-03-17T07:27:02;100282.25;;;8.72;47.66
60465;BME280;46314;52.392;9.758;2023-03-17T07:29:29;100277.44;;;8.64;47.56
60465;BME280;46314;52.392;9.758;2023-03-17T07:31:57;100268.22;;;8.87;47.10
60465;BME280;46314;52.392;9.758;2023-03-17T07:34:23;100272.38;;;9.04;47.03
60465;BME280;46314;52.392;9.758;2023-03-17T07:36:50;100272.97;;;9.20;46.84
60465;BME280;46314;52.392;9.758;2023-03-17T07:39:16;100266.56;;;9.05;46.92
60465;BME280;46314;52.392;9.758;2023-03-17T07:41:42;100272.88;;;9.58;46.07
60465;BME280;46314;52.392;9.758;2023-03-17T07:44:09;100272.38;;;9.56;45.17
60465;BME280;46314;52.392;9.758;2023-03-17T07:46:36;100277.00;;;9.60;45.93
60465;BME280;46314;52.392;9.758;2023-03-17T07:49:04;100279.91;;;9.36;45.81
60465;BME280;46314;52.392;9.758;2023-03-17T07:51:31;100282.56;;;10.02;44.88
60465;BME280;46314;52.392;9.758;2023-03-17T07:53:57;100274.88;;;9.99;45.83
60465;BME280;46314;52.392;9.758;2023-03-17T07:56:23;100287.31;;;10.29;44.71
60465;BME280;46314;52.392;9.758;2023-03-17T07:58:50;100267.41;;;10.13;44.20
60465;BME280;46314;52.392;9.758;2023-03-17T08:01:16;100260.22;;;10.26;43.58
60465;BME280;46314;52.392;9.758;2023-03-17T08:03:43;100254.25;;;10.47;43.02
60465;BME280;46314;52.392;9.758;2023-03-17T08:06:10;100258.25;;;10.40;43.36
60465;BME280;46314;52.392;9.758;2023-03-17T08:08:37;100253.91;;;10.62;43.00
60465;BME280;46314;52.392;9.758;2023-03-17T08:11:04;100244.13;;;11.01;43.24
60465;BME280;46314;52.392;9.758;2023-03-17T08:13:31;100244.06;;;10.56;43.10
60465;BME280;46314;52.392;9.758;2023-03-17T08:15:57;100251.28;;;10.79;42.87
60465;BME280;46314;52.392;9.758;2023-03-17T08:18:24;100266.97;;;10.48;43.93
60465;BME280;46314;52.392;9.758;2023-03-17T08:20:50;100261.59;;;11.02;42.66
60465;BME280;46314;52.392;9.758;2023-03-17T08:23:19;100256.28;;;10.55;43.60
60465;BME280;46314;52.392;9.758;2023-03-17T08:25:46;100254.06;;;10.43;43.53
60465;BME280;46314;52.392;9.758;2023-03-17T08:28:13;100264.09;;;11.26;42.20
60465;BME280;46314;52.392;9.758;2023-03-17T08:30:39;100270.72;;;10.79;43.01
60465;BME280;46314;52.392;9.758;2023-03-17T08:33:06;100279.31;;;11.14;41.92
60465;BME280;46314;52.392;9.758;2023-03-17T08:35:33;100285.88;;;11.18;42.42
60465;BME280;46314;52.392;9.758;2023-03-17T08:38:00;100275.69;;;11.28;43.10
60465;BME280;46314;52.392;9.758;2023-03-17T08:40:28;100267.84;;;11.30;41.98
60465;BME280;46314;52.392;9.758;2023-03-17T08:42:55;100262.91;;;11.49;42.08
60465;BME280;46314;52.392;9.758;2023-03-17T08:45:22;100273.34;;;11.44;41.84
60465;BME280;46314;52.392;9.758;2023-03-17T08:47:48;100275.25;;;11.12;42.46
60465;BME280;46314;52.392;9.758;2023-03-17T08:50:18;100266.50;;;11.81;41.54
60465;BME280;46314;52.392;9.758;2023-03-17T08:52:45;100263.38;;;12.05;41.02
60465;BME280;46314;52.392;9.758;2023-03-17T08:55:12;100268.22;;;11.37;42.27
60465;BME280;46314;52.392;9.758;2023-03-17T08:57:40;100260.06;;;11.63;41.83
60465;BME280;46314;52.392;9.758;2023-03-17T09:00:08;100251.38;;;11.11;42.73
60465;BME280;46314;52.392;9.758;2023-03-17T09:02:36;100244.41;;;11.13;42.45
60465;BME280;46314;52.392;9.758;2023-03-17T09:05:02;100237.31;;;11.30;42.90
60465;BME280;46314;52.392;9.758;2023-03-17T09:07:29;100230.88;;;12.15;41.98
60465;BME280;46314;52.392;9.758;2023-03-17T09:09:55;100242.75;;;11.35;42.63
60465;BME280;46314;52.392;9.758;2023-03-17T09:12:22;100225.41;;;11.29;42.33
60465;BME280;46314;52.392;9.758;2023-03-17T09:14:49;100229.22;;;11.42;42.27
60465;BME280;46314;52.392;9.758;2023-03-17T09:17:16;100229.97;;;11.34;42.38
60465;BME280;46314;52.392;9.758;2023-03-17T09:19:42;100218.47;;;11.49;42.46
60465;BME280;46314;52.392;9.758;2023-03-17T09:22:11;100219.28;;;11.81;41.63
60465;BME280;46314;52.392;9.758;2023-03-17T09:24:37;100218.47;;;11.81;42.08
60465;BME280;46314;52.392;9.758;2023-03-17T09:27:04;100223.03;;;11.85;42.13
60465;BME280;46314;52.392;9.758;2023-03-17T09:29:30;100217.75;;;12.06;41.59
60465;BME280;46314;52.392;9.758;2023-03-17T09:31:59;100212.91;;;11.81;41.54
60465;BME280;46314;52.392;9.758;2023-03-17T09:34:26;100218.00;;;11.87;41.58
60465;BME280;46314;52.392;9.758;2023-03-17T09:36:54;100219.19;;;12.79;40.75
60465;BME280;46314;52.392;9.758;2023-03-17T09:39:21;100223.44;;;12.67;40.11
60465;BME280;46314;52.392;9.758;2023-03-17T09:42:07;100227.03;;;12.42;40.77
60465;BME280;46314;52.392;9.758;2023-03-17T09:44:50;100239.66;;;13.18;38.94
60465;BME280;46314;52.392;9.758;2023-03-17T09:47:41;100235.38;;;13.03;39.19
60465;BME280;46314;52.392;9.758;2023-03-17T09:50:16;100242.91;;;12.76;39.60
60465;BME280;46314;52.392;9.758;2023-03-17T09:52:44;100240.13;;;13.29;39.19
60465;BME280;46314;52.392;9.758;2023-03-17T09:55:16;100247.81;;;12.62;39.00
60465;BME280;46314;52.392;9.758;2023-03-17T09:57:46;100247.69;;;13.11;39.63
60465;BME280;46314;52.392;9.758;2023-03-17T10:00:15;100243.25;;;13.18;39.38
60465;BME280;46314;52.392;9.758;2023-03-17T10:02:44;100246.59;;;13.68;37.64
60465;BME280;46314;52.392;9.758;2023-03-17T10:05:17;100244.22;;;13.05;38.77
60465;BME280;46314;52.392;9.758;2023-03-17T10:07:49;100249.09;;;13.52;38.65
60465;BME280;46314;52.392;9.758;2023-03-17T10:10:22;100246.50;;;13.94;37.70
60465;BME280;46314;52.392;9.758;2023-03-17T10:12:57;100240.56;;;13.66;38.70
60465;BME280;46314;52.392;9.758;2023-03-17T10:15:33;100231.28;;;13.35;38.02
60465;BME280;46314;52.392;9.758;2023-03-17T10:18:01;100238.13;;;13.47;37.70
60465;BME280;46314;52.392;9.758;2023-03-17T10:20:34;100227.91;;;13.68;37.52
60465;BME280;46314;52.392;9.758;2023-03-17T10:23:05;100224.53;;;13.45;37.97
60465;BME280;46314;52.392;9.758;2023-03-17T10:25:35;100238.22;;;13.76;38.96
60465;BME280;46314;52.392;9.758;2023-03-17T10:28:05;100239.00;;;13.86;37.54
60465;BME280;46314;52.392;9.758;2023-03-17T10:30:34;100236.53;;;14.23;37.35
60465;BME280;46314;52.392;9.758;2023-03-17T10:33:03;100234.09;;;14.42;36.92
60465;BME280;46314;52.392;9.758;2023-03-17T10:35:30;100236.53;;;14.23;37.77
60465;BME280;46314;52.392;9.758;2023-03-17T10:37:57;100238.28;;;13.59;37.84
60465;BME280;46314;52.392;9.758;2023-03-17T10:40:39;100235.25;;;13.81;37.52
60465;BME280;46314;52.392;9.758;2023-03-17T10:43:06;100244.47;;;14.12;37.45
60465;BME280;46314;52.392;9.758;2023-03-17T10:45:46;100232.75;;;13.89;37.86
60465;BME280;46314;52.392;9.758;2023-03-17T10:48:20;100224.84;;;15.01;36.95
60465;BME280;46314;52.392;9.758;2023-03-17T10:50:47;100221.72;;;15.36;36.46
60465;BME280;46314;52.392;9.758;2023-03-17T10:53:19;100233.13;;;15.10;36.02
60465;BME280;46314;52.392;9.758;2023-03-17T10:55:48;100224.59;;;14.43;36.48
60465;BME280;46314;52.392;9.758;2023-03-17T10:58:16;100221.09;;;14.97;36.90
60465;BME280;46314;52.392;9.758;2023-03-17T11:00:53;100217.63;;;14.58;37.78
60465;BME280;46314;52.392;9.758;2023-03-17T11:03:24;100221.22;;;15.01;37.67
60465;BME280;46314;52.392;9.758;2023-03-17T11:05:55;100230.69;;;14.87;37.31
60465;BME280;46314;52.392;9.758;2023-03-17T11:08:22;100230.84;;;14.91;36.55
60465;BME280;46314;52.392;9.758;2023-03-17T11:10:53;100228.56;;;15.39;36.00
60465;BME280;46314;52.392;9.758;2023-03-17T11:13:20;100216.53;;;15.71;36.15
60465;BME280;46314;52.392;9.758;2023-03-17T11:15:50;100219.66;;;14.70;38.19
60465;BME280;46314;52.392;9.758;2023-03-17T11:18:20;100223.78;;;14.72;36.70
60465;BME280;46314;52.392;9.758;2023-03-17T11:20:53;100219.41;;;14.33;37.36
60465;BME280;46314;52.392;9.758;2023-03-17T11:23:32;100210.47;;;14.90;36.94
60465;BME280;46314;52.392;9.758;2023-03-17T11:26:11;100211.50;;;14.86;37.49
60465;BME280;46314;52.392;9.758;2023-03-17T11:28:46;100215.91;;;15.08;37.57
60465;BME280;46314;52.392;9.758;2023-03-17T11:31:18;100211.53;;;14.98;37.30
60465;BME280;46314;52.392;9.758;2023-03-17T11:33:55;100199.69;;;15.34;36.50
60465;BME280;46314;52.392;9.758;2023-03-17T11:36:37;100193.00;;;15.60;36.54
60465;BME280;46314;52.392;9.758;2023-03-17T11:39:10;100196.78;;;15.77;37.19
60465;BME280;46314;52.392;9.758;2023-03-17T11:41:44;100198.63;;;15.27;37.27
60465;BME280;46314;52.392;9.758;2023-03-17T11:44:37;100192.53;;;14.91;37.35
60465;BME280;46314;52.392;9.758;2023-03-17T11:47:17;100172.97;;;15.12;37.34
60465;BME280;46314;52.392;9.758;2023-03-17T11:49:51;100173.63;;;15.30;36.97
60465;BME280;46314;52.392;9.758;2023-03-17T11:52:25;100175.97;;;15.65;36.49
60465;BME280;46314;52.392;9.758;2023-03-17T11:54:56;100168.00;;;16.01;37.34
60465;BME280;46314;52.392;9.758;2023-03-17T11:57:32;100175.75;;;16.32;36.90
60465;BME280;46314;52.392;9.758;2023-03-17T12:00:03;100176.06;;;16.02;36.73
60465;BME280;46314;52.392;9.758;2023-03-17T12:02:37;100171.72;;;16.17;36.88
60465;BME280;46314;52.392;9.758;2023-03-17T12:05:08;100178.13;;;16.18;37.14
60465;BME280;46314;52.392;9.758;2023-03-17T12:07:40;100184.44;;;16.02;36.52
60465;BME280;46314;52.392;9.758;2023-03-17T12:10:15;100180.16;;;15.47;36.81
60465;BME280;46314;52.392;9.758;2023-03-17T12:12:47;100181.00;;;15.72;36.52
60465;BME280;46314;52.392;9.758;2023-03-17T12:15:18;100177.38;;;15.47;37.32
60465;BME280;46314;52.392;9.758;2023-03-17T12:17:50;100178.47;;;15.92;36.57
60465;BME280;46314;52.392;9.758;2023-03-17T12:20:25;100175.56;;;16.00;37.89
60465;BME280;46314;52.392;9.758;2023-03-17T12:23:00;100162.13;;;16.43;37.22
60465;BME280;46314;52.392;9.758;2023-03-17T12:25:30;100158.69;;;16.50;36.75
60465;BME280;46314;52.392;9.758;2023-03-17T12:28:00;100164.00;;;16.26;36.23
60465;BME280;46314;52.392;9.758;2023-03-17T12:30:30;100158.22;;;16.60;36.27
60465;BME280;46314;52.392;9.758;2023-03-17T12:33:10;100153.31;;;16.97;35.54
60465;BME280;46314;52.392;9.758;2023-03-17T12:35:40;100153.41;;;16.07;37.12
60465;BME280;46314;52.392;9.758;2023-03-17T12:38:11;100153.06;;;16.09;37.80
60465;BME280;46314;52.392;9.758;2023-03-17T12:40:52;100151.31;;;16.29;37.29
60465;BME280;46314;52.392;9.758;2023-03-17T12:43:35;100161.25;;;16.55;36.55
60465;BME280;46314;52.392;9.758;2023-03-17T12:46:19;100151.22;;;16.13;36.77
60465;BME280;46314;52.392;9.758;2023-03-17T12:51:54;100145.16;;;16.64;35.94
60465;BME280;46314;52.392;9.758;2023-03-17T12:54:26;100144.56;;;16.05;37.27
60465;BME280;46314;52.392;9.758;2023-03-17T12:57:00;100139.47;;;16.48;37.32
60465;BME280;46314;52.392;9.758;2023-03-17T12:59:27;100154.44;;;16.68;36.43
60465;BME280;46314;52.392;9.758;2023-03-17T13:01:55;100154.22;;;16.33;37.49
60465;BME280;46314;52.392;9.758;2023-03-17T13:04:23;100139.44;;;17.17;35.68
60465;BME280;46314;52.392;9.758;2023-03-17T13:06:56;100149.31;;;17.27;35.81
60465;BME280;46314;52.392;9.758;2023-03-17T13:09:32;100135.66;;;16.69;36.43
60465;BME280;46314;52.392;9.758;2023-03-17T13:12:00;100128.72;;;16.91;36.12